sensor_id;sensor_type;location;lat;lon;timestamp;temperature;humidity
59128;DHT22;44912;52.754;5.994;2023-04-08T00:00:03;5.00;99.90
59128;DHT22;44912;52.754;5.994;2023-04-08T00:02:30;5.00;99.90
59128;DHT22;44912;52.754;5.994;2023-04-08T00:04:56;4.90;99.90
59128;DHT22;44912;52.754;5.994;2023-04-08T00:07:21;4.90;99.90
59128;DHT22;44912;52.754;5.994;2023-04-08T00:09:47;4.80;99.90
59128;DHT22;44912;52.754;5.994;2023-04-08T00:12:13;4.80;99.90
59128;DHT22;44912;52.754;5.994;2023-04-08T00:14:38;4.70;99.90
59128;DHT22;44912;52.754;5.994;2023-04-08T00:17:06;4.80;99.90
59128;DHT22;44912;52.754;5.994;2023-04-08T00:19:31;4.70;99.90
59128;DHT22;44912;52.754;5.994;2023-04-08T00:21:57;4.70;99.90
59128;DHT22;44912;52.754;5.994;2023-04-08T00:24:23;4.70;99.90
59128;DHT22;44912;52.754;5.994;2023-04-08T00:26:50;4.70;99.90
59128;DHT22;44912;52.754;5.994;2023-04-08T00:29:15;4.70;99.90
59128;DHT22;44912;52.754;5.994;2023-04-08T00:31:41;4.70;99.90
59128;DHT22;44912;52.754;5.994;2023-04-08T00:34:06;4.60;99.90
59128;DHT22;44912;52.754;5.994;2023-04-08T00:36:32;4.60;99.90
59128;DHT22;44912;52.754;5.994;2023-04-08T00:38:58;4.60;99.90
59128;DHT22;44912;52.754;5.994;2023-04-08T00:41:23;4.60;99.90
59128;DHT22;44912;52.754;5.994;2023-04-08T00:43:49;4.60;99.90
59128;DHT22;44912;52.754;5.994;2023-04-08T00:46:15;4.60;99.90
59128;DHT22;44912;52.754;5.994;2023-04-08T00:48:41;4.60;99.90
59128;DHT22;44912;52.754;5.994;2023-04-08T00:51:07;4.60;99.90
59128;DHT22;44912;52.754;5.994;2023-04-08T00:53:32;4.60;99.90
59128;DHT22;44912;52.754;5.994;2023-04-08T00:55:58;4.60;99.90
59128;DHT22;44912;52.754;5.994;2023-04-08T00:58:26;4.50;99.90
59128;DHT22;44912;52.754;5.994;2023-04-08T01:00:59;4.50;99.90
59128;DHT22;44912;52.754;5.994;2023-04-08T01:03:45;4.50;99.90
59128;DHT22;44912;52.754;5.994;2023-04-08T01:06:37;4.40;99.90
59128;DHT22;44912;52.754;5.994;2023-04-08T01:09:07;4.40;99.90
59128;DHT22;44912;52.754;5.994;2023-04-08T01:11:34;4.30;99.90
59128;DHT22;44912;52.754;5.994;2023-04-08T01:14:02;4.30;99.90
59128;DHT22;44912;52.754;5.994;2023-04-08T01:16:31;4.30;99.90
59128;DHT22;44912;52.754;5.994;2023-04-08T01:18:58;4.20;99.90
59128;DHT22;44912;52.754;5.994;2023-04-08T01:21:24;4.20;99.90
59128;DHT22;44912;52.754;5.994;2023-04-08T01:23:56;4.20;99.90
59128;DHT22;44912;52.754;5.994;2023-04-08T01:26:24;4.10;99.90
59128;DHT22;44912;52.754;5.994;2023-04-08T01:28:54;4.10;99.90
59128;DHT22;44912;52.754;5.994;2023-04-08T01:31:21;4.10;99.90
59128;DHT22;44912;52.754;5.994;2023-04-08T01:33:48;4.00;99.90
59128;DHT22;44912;52.754;5.994;2023-04-08T01:36:16;4.00;99.90
59128;DHT22;44912;52.754;5.994;2023-04-08T01:38:42;4.00;99.90
59128;DHT22;44912;52.754;5.994;2023-04-08T01:41:10;4.00;99.90
59128;DHT22;44912;52.754;5.994;2023-04-08T01:43:35;4.00;99.90
59128;DHT22;44912;52.754;5.994;2023-04-08T01:46:04;4.00;99.90
59128;DHT22;44912;52.754;5.994;2023-04-08T01:48:31;4.00;99.90
59128;DHT22;44912;52.754;5.994;2023-04-08T01:50:59;4.00;99.90
59128;DHT22;44912;52.754;5.994;2023-04-08T01:53:25;4.00;99.90
59128;DHT22;44912;52.754;5.994;2023-04-08T01:55:55;4.00;99.90
59128;DHT22;44912;52.754;5.994;2023-04-08T01:58:21;4.00;99.90
59128;DHT22;44912;52.754;5.994;2023-04-08T02:00:50;4.00;99.90
59128;DHT22;44912;52.754;5.994;2023-04-08T02:03:18;4.00;99.90
59128;DHT22;44912;52.754;5.994;2023-04-08T02:05:45;4.00;99.90
59128;DHT22;44912;52.754;5.994;2023-04-08T02:08:11;3.90;99.90
59128;DHT22;44912;52.754;5.994;2023-04-08T02:10:37;4.00;99.90
59128;DHT22;44912;52.754;5.994;2023-04-08T02:13:02;3.90;99.90
59128;DHT22;44912;52.754;5.994;2023-04-08T02:15:33;3.90;99.90
59128;DHT22;44912;52.754;5.994;2023-04-08T02:18:07;3.90;99.90
59128;DHT22;44912;52.754;5.994;2023-04-08T02:20:45;3.90;99.90
59128;DHT22;44912;52.754;5.994;2023-04-08T02:23:19;3.80;99.90
59128;DHT22;44912;52.754;5.994;2023-04-08T02:25:46;3.70;99.90
59128;DHT22;44912;52.754;5.994;2023-04-08T02:28:13;3.70;99.90
59128;DHT22;44912;52.754;5.994;2023-04-08T02:30:47;3.70;99.90
59128;DHT22;44912;52.754;5.994;2023-04-08T02:33:13;3.60;99.90
59128;DHT22;44912;52.754;5.994;2023-04-08T02:35:40;3.50;99.90
59128;DHT22;44912;52.754;5.994;2023-04-08T02:38:06;3.50;99.90
59128;DHT22;44912;52.754;5.994;2023-04-08T02:40:32;3.50;99.90
59128;DHT22;44912;52.754;5.994;2023-04-08T02:42:58;3.50;99.90
59128;DHT22;44912;52.754;5.994;2023-04-08T02:45:29;3.50;99.90
59128;DHT22;44912;52.754;5.994;2023-04-08T02:47:55;3.50;99.90
59128;DHT22;44912;52.754;5.994;2023-04-08T02:50:21;3.50;99.90
59128;DHT22;44912;52.754;5.994;2023-04-08T02:52:46;3.50;99.90
59128;DHT22;44912;52.754;5.994;2023-04-08T02:55:12;3.50;99.90
59128;DHT22;44912;52.754;5.994;2023-04-08T02:57:41;3.40;99.90
59128;DHT22;44912;52.754;5.994;2023-04-08T03:00:07;3.30;99.90
59128;DHT22;44912;52.754;5.994;2023-04-08T03:02:33;3.30;99.90
59128;DHT22;44912;52.754;5.994;2023-04-08T03:04:59;3.30;99.90
59128;DHT22;44912;52.754;5.994;2023-04-08T03:07:25;3.30;99.90
59128;DHT22;44912;52.754;5.994;2023-04-08T03:09:51;3.30;99.90
59128;DHT22;44912;52.754;5.994;2023-04-08T03:12:16;3.30;99.90
59128;DHT22;44912;52.754;5.994;2023-04-08T03:14:42;3.30;99.90
59128;DHT22;44912;52.754;5.994;2023-04-08T03:17:07;3.20;99.90
59128;DHT22;44912;52.754;5.994;2023-04-08T03:19:33;3.20;99.90
59128;DHT22;44912;52.754;5.994;2023-04-08T03:21:58;3.20;99.90
59128;DHT22;44912;52.754;5.994;2023-04-08T03:24:24;3.10;99.90
59128;DHT22;44912;52.754;5.994;2023-04-08T03:26:50;3.10;99.90
59128;DHT22;44912;52.754;5.994;2023-04-08T03:29:15;3.10;99.90
59128;DHT22;44912;52.754;5.994;2023-04-08T03:31:41;3.10;99.90
59128;DHT22;44912;52.754;5.994;2023-04-08T03:34:06;3.10;99.90
59128;DHT22;44912;52.754;5.994;2023-04-08T03:36:32;3.10;99.90
59128;DHT22;44912;52.754;5.994;2023-04-08T03:38:57;3.20;99.90
59128;DHT22;44912;52.754;5.994;2023-04-08T03:41:23;3.10;99.90
59128;DHT22;44912;52.754;5.994;2023-04-08T03:43:48;3.10;99.90
59128;DHT22;44912;52.754;5.994;2023-04-08T03:46:14;3.00;99.90
59128;DHT22;44912;52.754;5.994;2023-04-08T03:48:39;3.10;99.90
59128;DHT22;44912;52.754;5.994;2023-04-08T03:51:05;3.10;99.90
59128;DHT22;44912;52.754;5.994;2023-04-08T03:53:30;3.10;99.90
59128;DHT22;44912;52.754;5.994;2023-04-08T03:55:56;3.10;99.90
59128;DHT22;44912;52.754;5.994;2023-04-08T03:58:22;3.00;99.90
59128;DHT22;44912;52.754;5.994;2023-04-08T04:00:47;3.00;99.90
59128;DHT22;44912;52.754;5.994;2023-04-08T04:03:13;3.00;99.90
59128;DHT22;44912;52.754;5.994;2023-04-08T04:05:39;3.00;99.90
59128;DHT22;44912;52.754;5.994;2023-04-08T04:08:05;2.90;99.90
59128;DHT22;44912;52.754;5.994;2023-04-08T04:10:31;2.90;99.90
59128;DHT22;44912;52.754;5.994;2023-04-08T04:12:56;2.90;99.90
59128;DHT22;44912;52.754;5.994;2023-04-08T04:15:22;2.90;99.90
59128;DHT22;44912;52.754;5.994;2023-04-08T04:17:48;2.90;99.90
59128;DHT22;44912;52.754;5.994;2023-04-08T04:20:17;2.80;99.90
59128;DHT22;44912;52.754;5.994;2023-04-08T04:22:43;2.80;99.90
59128;DHT22;44912;52.754;5.994;2023-04-08T04:25:09;2.80;99.90
59128;DHT22;44912;52.754;5.994;2023-04-08T04:27:35;2.80;99.90
59128;DHT22;44912;52.754;5.994;2023-04-08T04:30:01;2.70;99.90
59128;DHT22;44912;52.754;5.994;2023-04-08T04:32:27;2.70;99.90
59128;DHT22;44912;52.754;5.994;2023-04-08T04:34:53;2.70;99.90
59128;DHT22;44912;52.754;5.994;2023-04-08T04:37:18;2.70;99.90
59128;DHT22;44912;52.754;5.994;2023-04-08T04:39:44;2.70;99.90
59128;DHT22;44912;52.754;5.994;2023-04-08T04:42:09;2.70;99.90
59128;DHT22;44912;52.754;5.994;2023-04-08T04:44:35;2.70;99.90
59128;DHT22;44912;52.754;5.994;2023-04-08T04:47:01;2.70;99.90
59128;DHT22;44912;52.754;5.994;2023-04-08T04:49:27;2.70;99.90
59128;DHT22;44912;52.754;5.994;2023-04-08T04:51:52;2.70;99.90
59128;DHT22;44912;52.754;5.994;2023-04-08T04:54:18;2.70;99.90
59128;DHT22;44912;52.754;5.994;2023-04-08T04:56:43;2.80;99.90
59128;DHT22;44912;52.754;5.994;2023-04-08T04:59:09;2.70;99.90
59128;DHT22;44912;52.754;5.994;2023-04-08T05:01:34;2.70;99.90
59128;DHT22;44912;52.754;5.994;2023-04-08T05:04:00;2.80;99.90
59128;DHT22;44912;52.754;5.994;2023-04-08T05:06:26;2.70;99.90
59128;DHT22;44912;52.754;5.994;2023-04-08T05:08:52;2.70;99.90
59128;DHT22;44912;52.754;5.994;2023-04-08T05:11:17;2.70;99.90
59128;DHT22;44912;52.754;5.994;2023-04-08T05:13:43;2.70;99.90
59128;DHT22;44912;52.754;5.994;2023-04-08T05:16:09;2.80;99.90
59128;DHT22;44912;52.754;5.994;2023-04-08T05:18:35;2.70;99.90
59128;DHT22;44912;52.754;5.994;2023-04-08T05:21:01;2.80;99.90
59128;DHT22;44912;52.754;5.994;2023-04-08T05:23:27;2.80;99.90
59128;DHT22;44912;52.754;5.994;2023-04-08T05:25:52;2.80;99.90
59128;DHT22;44912;52.754;5.994;2023-04-08T05:28:18;2.80;99.90
59128;DHT22;44912;52.754;5.994;2023-04-08T05:30:53;2.80;99.90
59128;DHT22;44912;52.754;5.994;2023-04-08T05:33:18;2.80;99.90
59128;DHT22;44912;52.754;5.994;2023-04-08T05:35:44;2.80;99.90
59128;DHT22;44912;52.754;5.994;2023-04-08T05:38:10;2.80;99.90
59128;DHT22;44912;52.754;5.994;2023-04-08T05:40:36;2.70;99.90
59128;DHT22;44912;52.754;5.994;2023-04-08T05:43:02;2.70;99.90
59128;DHT22;44912;52.754;5.994;2023-04-08T05:45:29;2.70;99.90
59128;DHT22;44912;52.754;5.994;2023-04-08T05:47:54;2.70;99.90
59128;DHT22;44912;52.754;5.994;2023-04-08T05:50:20;2.70;99.90
59128;DHT22;44912;52.754;5.994;2023-04-08T05:52:45;2.70;99.90
59128;DHT22;44912;52.754;5.994;2023-04-08T05:55:13;2.80;99.90
59128;DHT22;44912;52.754;5.994;2023-04-08T05:57:39;2.80;99.90
59128;DHT22;44912;52.754;5.994;2023-04-08T06:00:06;2.90;99.90
59128;DHT22;44912;52.754;5.994;2023-04-08T06:02:33;2.90;99.90
59128;DHT22;44912;52.754;5.994;2023-04-08T06:04:58;2.90;99.90
59128;DHT22;44912;52.754;5.994;2023-04-08T06:07:24;3.00;99.90
59128;DHT22;44912;52.754;5.994;2023-04-08T06:09:50;3.00;99.90
59128;DHT22;44912;52.754;5.994;2023-04-08T06:12:15;3.10;99.90
59128;DHT22;44912;52.754;5.994;2023-04-08T06:14:41;3.20;99.90
59128;DHT22;44912;52.754;5.994;2023-04-08T06:17:06;3.30;99.90
59128;DHT22;44912;52.754;5.994;2023-04-08T06:19:32;3.40;99.90
59128;DHT22;44912;52.754;5.994;2023-04-08T06:21:57;3.40;99.90
59128;DHT22;44912;52.754;5.994;2023-04-08T06:24:27;3.50;99.90
59128;DHT22;44912;52.754;5.994;2023-04-08T06:26:54;3.50;99.90
59128;DHT22;44912;52.754;5.994;2023-04-08T06:29:21;3.60;99.90
59128;DHT22;44912;52.754;5.994;2023-04-08T06:31:47;3.60;99.90
59128;DHT22;44912;52.754;5.994;2023-04-08T06:34:13;3.70;99.90
59128;DHT22;44912;52.754;5.994;2023-04-08T06:36:38;3.80;99.90
59128;DHT22;44912;52.754;5.994;2023-04-08T06:39:04;3.90;99.90
59128;DHT22;44912;52.754;5.994;2023-04-08T06:41:29;4.10;99.90
59128;DHT22;44912;52.754;5.994;2023-04-08T06:43:55;4.30;99.90
59128;DHT22;44912;52.754;5.994;2023-04-08T06:46:21;4.60;99.90
59128;DHT22;44912;52.754;5.994;2023-04-08T06:48:46;4.90;99.90
59128;DHT22;44912;52.754;5.994;2023-04-08T06:51:12;5.10;99.90
59128;DHT22;44912;52.754;5.994;2023-04-08T06:53:37;5.20;99.90
59128;DHT22;44912;52.754;5.994;2023-04-08T06:56:03;5.20;99.90
59128;DHT22;44912;52.754;5.994;2023-04-08T06:58:29;5.30;99.90
59128;DHT22;44912;52.754;5.994;2023-04-08T07:00:54;5.20;99.90
59128;DHT22;44912;52.754;5.994;2023-04-08T07:03:20;5.20;99.90
59128;DHT22;44912;52.754;5.994;2023-04-08T07:05:46;5.20;99.90
59128;DHT22;44912;52.754;5.994;2023-04-08T07:08:12;5.30;99.90
59128;DHT22;44912;52.754;5.994;2023-04-08T07:10:38;5.30;99.90
59128;DHT22;44912;52.754;5.994;2023-04-08T07:13:03;5.30;99.90
59128;DHT22;44912;52.754;5.994;2023-04-08T07:15:29;5.40;99.90
59128;DHT22;44912;52.754;5.994;2023-04-08T07:17:55;5.40;99.90
59128;DHT22;44912;52.754;5.994;2023-04-08T07:20:24;5.40;99.90
59128;DHT22;44912;52.754;5.994;2023-04-08T07:22:50;5.50;99.90
59128;DHT22;44912;52.754;5.994;2023-04-08T07:25:16;5.50;99.90
59128;DHT22;44912;52.754;5.994;2023-04-08T07:27:42;5.50;99.90
59128;DHT22;44912;52.754;5.994;2023-04-08T07:30:08;5.60;99.90
59128;DHT22;44912;52.754;5.994;2023-04-08T07:32:34;5.70;99.90
59128;DHT22;44912;52.754;5.994;2023-04-08T07:35:00;5.80;99.90
59128;DHT22;44912;52.754;5.994;2023-04-08T07:37:26;5.80;99.90
59128;DHT22;44912;52.754;5.994;2023-04-08T07:39:52;5.90;99.90
59128;DHT22;44912;52.754;5.994;2023-04-08T07:42:17;6.00;99.90
59128;DHT22;44912;52.754;5.994;2023-04-08T07:44:44;6.10;99.90
59128;DHT22;44912;52.754;5.994;2023-04-08T07:47:10;6.20;99.90
59128;DHT22;44912;52.754;5.994;2023-04-08T07:49:36;6.40;99.90
59128;DHT22;44912;52.754;5.994;2023-04-08T07:52:03;6.60;99.90
59128;DHT22;44912;52.754;5.994;2023-04-08T07:54:33;6.70;99.90
59128;DHT22;44912;52.754;5.994;2023-04-08T07:56:59;6.80;99.90
59128;DHT22;44912;52.754;5.994;2023-04-08T07:59:25;6.90;99.90
59128;DHT22;44912;52.754;5.994;2023-04-08T08:01:51;7.00;99.90
59128;DHT22;44912;52.754;5.994;2023-04-08T08:04:17;7.20;99.90
59128;DHT22;44912;52.754;5.994;2023-04-08T08:06:42;7.30;99.90
59128;DHT22;44912;52.754;5.994;2023-04-08T08:09:08;7.30;99.90
59128;DHT22;44912;52.754;5.994;2023-04-08T08:11:33;7.40;99.90
59128;DHT22;44912;52.754;5.994;2023-04-08T08:13:59;7.60;99.90
59128;DHT22;44912;52.754;5.994;2023-04-08T08:16:27;7.80;99.90
59128;DHT22;44912;52.754;5.994;2023-04-08T08:18:53;8.00;99.90
59128;DHT22;44912;52.754;5.994;2023-04-08T08:21:19;8.20;99.90
59128;DHT22;44912;52.754;5.994;2023-04-08T08:23:44;8.40;99.90
59128;DHT22;44912;52.754;5.994;2023-04-08T08:26:10;8.60;99.90
59128;DHT22;44912;52.754;5.994;2023-04-08T08:28:39;8.80;99.90
59128;DHT22;44912;52.754;5.994;2023-04-08T08:31:05;9.10;99.90
59128;DHT22;44912;52.754;5.994;2023-04-08T08:33:31;9.10;99.90
59128;DHT22;44912;52.754;5.994;2023-04-08T08:35:57;9.00;99.90
59128;DHT22;44912;52.754;5.994;2023-04-08T08:38:23;8.80;99.90
59128;DHT22;44912;52.754;5.994;2023-04-08T08:40:56;8.60;99.90
59128;DHT22;44912;52.754;5.994;2023-04-08T08:43:26;8.50;99.90
59128;DHT22;44912;52.754;5.994;2023-04-08T08:45:52;8.50;99.90
59128;DHT22;44912;52.754;5.994;2023-04-08T08:48:18;8.60;99.90
59128;DHT22;44912;52.754;5.994;2023-04-08T08:50:44;8.70;99.90
59128;DHT22;44912;52.754;5.994;2023-04-08T08:53:10;8.80;99.90
59128;DHT22;44912;52.754;5.994;2023-04-08T08:55:36;8.90;99.90
59128;DHT22;44912;52.754;5.994;2023-04-08T08:58:06;9.10;99.90
59128;DHT22;44912;52.754;5.994;2023-04-08T09:00:36;9.30;99.90
59128;DHT22;44912;52.754;5.994;2023-04-08T09:03:18;9.40;99.90
59128;DHT22;44912;52.754;5.994;2023-04-08T09:05:48;9.70;99.90
59128;DHT22;44912;52.754;5.994;2023-04-08T09:08:24;9.90;99.90
59128;DHT22;44912;52.754;5.994;2023-04-08T09:10:51;10.10;99.90
59128;DHT22;44912;52.754;5.994;2023-04-08T09:13:16;10.20;99.90
59128;DHT22;44912;52.754;5.994;2023-04-08T09:16:02;10.40;99.90
59128;DHT22;44912;52.754;5.994;2023-04-08T09:18:29;10.50;99.90
59128;DHT22;44912;52.754;5.994;2023-04-08T09:20:55;10.60;99.90
59128;DHT22;44912;52.754;5.994;2023-04-08T09:23:20;10.70;99.90
59128;DHT22;44912;52.754;5.994;2023-04-08T09:25:46;10.60;99.90
59128;DHT22;44912;52.754;5.994;2023-04-08T09:28:18;10.60;99.90
59128;DHT22;44912;52.754;5.994;2023-04-08T09:30:47;10.60;99.90
59128;DHT22;44912;52.754;5.994;2023-04-08T09:33:13;10.70;99.90
59128;DHT22;44912;52.754;5.994;2023-04-08T09:35:38;10.90;99.90
59128;DHT22;44912;52.754;5.994;2023-04-08T09:38:04;11.10;99.90
59128;DHT22;44912;52.754;5.994;2023-04-08T09:40:33;11.00;99.90
59128;DHT22;44912;52.754;5.994;2023-04-08T09:43:04;10.90;99.90
59128;DHT22;44912;52.754;5.994;2023-04-08T09:45:32;10.90;99.90
59128;DHT22;44912;52.754;5.994;2023-04-08T09:48:10;11.00;99.90
59128;DHT22;44912;52.754;5.994;2023-04-08T09:50:42;11.30;99.90
59128;DHT22;44912;52.754;5.994;2023-04-08T09:53:13;11.60;99.90
59128;DHT22;44912;52.754;5.994;2023-04-08T09:55:46;11.70;99.90
59128;DHT22;44912;52.754;5.994;2023-04-08T09:58:15;12.20;99.90
59128;DHT22;44912;52.754;5.994;2023-04-08T10:00:46;12.10;99.90
59128;DHT22;44912;52.754;5.994;2023-04-08T10:03:39;12.30;99.90
59128;DHT22;44912;52.754;5.994;2023-04-08T10:06:05;12.40;99.90
59128;DHT22;44912;52.754;5.994;2023-04-08T10:10:59;12.90;99.90
59128;DHT22;44912;52.754;5.994;2023-04-08T10:23:59;11.80;99.90
59128;DHT22;44912;52.754;5.994;2023-04-08T10:26:32;13.10;99.90
59128;DHT22;44912;52.754;5.994;2023-04-08T10:31:54;13.40;99.90
59128;DHT22;44912;52.754;5.994;2023-04-08T10:34:21;13.50;99.90
59128;DHT22;44912;52.754;5.994;2023-04-08T10:36:48;13.60;99.90
59128;DHT22;44912;52.754;5.994;2023-04-08T10:39:14;13.60;99.90
59128;DHT22;44912;52.754;5.994;2023-04-08T10:41:44;13.60;99.90
59128;DHT22;44912;52.754;5.994;2023-04-08T10:44:26;13.70;99.90
59128;DHT22;44912;52.754;5.994;2023-04-08T10:46:53;13.80;99.90
59128;DHT22;44912;52.754;5.994;2023-04-08T10:49:19;13.70;99.90
59128;DHT22;44912;52.754;5.994;2023-04-08T10:51:45;13.60;99.90
59128;DHT22;44912;52.754;5.994;2023-04-08T10:54:13;13.60;99.90
59128;DHT22;44912;52.754;5.994;2023-04-08T10:56:47;13.90;99.90
59128;DHT22;44912;52.754;5.994;2023-04-08T10:59:25;13.90;99.90
59128;DHT22;44912;52.754;5.994;2023-04-08T11:01:51;13.90;99.90
59128;DHT22;44912;52.754;5.994;2023-04-08T11:04:17;14.10;99.90
59128;DHT22;44912;52.754;5.994;2023-04-08T11:06:44;14.30;99.90
59128;DHT22;44912;52.754;5.994;2023-04-08T11:09:12;14.40;99.90
59128;DHT22;44912;52.754;5.994;2023-04-08T11:11:38;14.60;99.90
59128;DHT22;44912;52.754;5.994;2023-04-08T11:14:05;14.70;99.90
59128;DHT22;44912;52.754;5.994;2023-04-08T11:16:32;14.90;99.90
59128;DHT22;44912;52.754;5.994;2023-04-08T11:18:57;15.00;99.90
59128;DHT22;44912;52.754;5.994;2023-04-08T11:21:23;14.70;99.90
59128;DHT22;44912;52.754;5.994;2023-04-08T11:23:50;15.00;99.90
59128;DHT22;44912;52.754;5.994;2023-04-08T11:26:20;14.60;99.90
59128;DHT22;44912;52.754;5.994;2023-04-08T11:28:46;14.60;99.90
59128;DHT22;44912;52.754;5.994;2023-04-08T11:31:16;14.50;99.90
59128;DHT22;44912;52.754;5.994;2023-04-08T11:33:48;14.40;99.90
59128;DHT22;44912;52.754;5.994;2023-04-08T11:36:17;14.20;99.90
59128;DHT22;44912;52.754;5.994;2023-04-08T11:38:43;14.20;99.90
59128;DHT22;44912;52.754;5.994;2023-04-08T11:41:09;14.30;99.90
59128;DHT22;44912;52.754;5.994;2023-04-08T11:43:36;14.50;99.90
59128;DHT22;44912;52.754;5.994;2023-04-08T11:46:09;14.70;99.90
59128;DHT22;44912;52.754;5.994;2023-04-08T11:48:35;15.10;99.90
59128;DHT22;44912;52.754;5.994;2023-04-08T11:51:04;15.20;99.90
59128;DHT22;44912;52.754;5.994;2023-04-08T11:53:33;15.20;99.90
59128;DHT22;44912;52.754;5.994;2023-04-08T11:56:18;15.50;99.90
59128;DHT22;44912;52.754;5.994;2023-04-08T11:58:43;15.80;99.90
59128;DHT22;44912;52.754;5.994;2023-04-08T12:01:10;15.80;99.90
59128;DHT22;44912;52.754;5.994;2023-04-08T12:03:35;16.10;99.90
59128;DHT22;44912;52.754;5.994;2023-04-08T12:06:01;16.20;99.90
59128;DHT22;44912;52.754;5.994;2023-04-08T12:08:27;16.00;99.90
59128;DHT22;44912;52.754;5.994;2023-04-08T12:10:52;15.90;99.90
59128;DHT22;44912;52.754;5.994;2023-04-08T12:13:18;15.70;99.90
59128;DHT22;44912;52.754;5.994;2023-04-08T12:15:43;15.70;99.90
59128;DHT22;44912;52.754;5.994;2023-04-08T12:18:09;15.90;99.90
59128;DHT22;44912;52.754;5.994;2023-04-08T12:20:35;15.90;99.90
59128;DHT22;44912;52.754;5.994;2023-04-08T12:23:00;16.10;99.90
59128;DHT22;44912;52.754;5.994;2023-04-08T12:25:26;16.20;99.90
59128;DHT22;44912;52.754;5.994;2023-04-08T12:27:52;16.30;99.90
59128;DHT22;44912;52.754;5.994;2023-04-08T12:30:17;16.30;99.90
59128;DHT22;44912;52.754;5.994;2023-04-08T12:32:43;16.40;99.90
59128;DHT22;44912;52.754;5.994;2023-04-08T12:35:10;16.40;99.90
59128;DHT22;44912;52.754;5.994;2023-04-08T12:37:36;16.50;99.90
59128;DHT22;44912;52.754;5.994;2023-04-08T12:40:01;16.50;99.90
59128;DHT22;44912;52.754;5.994;2023-04-08T12:42:27;16.70;99.90
59128;DHT22;44912;52.754;5.994;2023-04-08T12:44:53;16.50;99.90
59128;DHT22;44912;52.754;5.994;2023-04-08T12:47:18;16.20;99.90
59128;DHT22;44912;52.754;5.994;2023-04-08T12:49:44;15.70;99.90
59128;DHT22;44912;52.754;5.994;2023-04-08T12:52:09;15.60;99.90
59128;DHT22;44912;52.754;5.994;2023-04-08T12:54:35;15.50;99.90
59128;DHT22;44912;52.754;5.994;2023-04-08T12:57:00;15.50;99.90
59128;DHT22;44912;52.754;5.994;2023-04-08T12:59:27;15.30;99.90
59128;DHT22;44912;52.754;5.994;2023-04-08T13:01:52;15.10;99.90
59128;DHT22;44912;52.754;5.994;2023-04-08T13:04:18;15.10;99.90
59128;DHT22;44912;52.754;5.994;2023-04-08T13:06:44;14.90;99.90
59128;DHT22;44912;52.754;5.994;2023-04-08T13:09:10;14.80;99.90
59128;DHT22;44912;52.754;5.994;2023-04-08T13:11:35;14.60;99.90
59128;DHT22;44912;52.754;5.994;2023-04-08T13:14:01;14.40;99.90
59128;DHT22;44912;52.754;5.994;2023-04-08T13:16:27;14.40;99.90
59128;DHT22;44912;52.754;5.994;2023-04-08T13:18:52;14.60;99.90
59128;DHT22;44912;52.754;5.994;2023-04-08T13:21:18;14.60;99.90
59128;DHT22;44912;52.754;5.994;2023-04-08T13:23:44;14.60;99.90
59128;DHT22;44912;52.754;5.994;2023-04-08T13:26:11;14.50;99.90
59128;DHT22;44912;52.754;5.994;2023-04-08T13:28:37;14.60;99.90
59128;DHT22;44912;52.754;5.994;2023-04-08T13:31:02;14.60;99.90
59128;DHT22;44912;52.754;5.994;2023-04-08T13:33:28;14.50;99.90
59128;DHT22;44912;52.754;5.994;2023-04-08T13:35:53;14.50;99.90
59128;DHT22;44912;52.754;5.994;2023-04-08T13:38:19;14.50;99.90
59128;DHT22;44912;52.754;5.994;2023-04-08T13:40:44;14.50;99.90
59128;DHT22;44912;52.754;5.994;2023-04-08T13:43:10;14.50;99.90
59128;DHT22;44912;52.754;5.994;2023-04-08T13:45:35;14.30;99.90
59128;DHT22;44912;52.754;5.994;2023-04-08T13:48:01;14.20;99.90
59128;DHT22;44912;52.754;5.994;2023-04-08T13:50:27;14.30;99.90
59128;DHT22;44912;52.754;5.994;2023-04-08T13:52:52;14.20;99.90
59128;DHT22;44912;52.754;5.994;2023-04-08T13:55:18;14.20;99.90
59128;DHT22;44912;52.754;5.994;2023-04-08T13:57:43;14.10;99.90
59128;DHT22;44912;52.754;5.994;2023-04-08T14:00:09;14.00;99.90
59128;DHT22;44912;52.754;5.994;2023-04-08T14:02:35;13.90;99.90
59128;DHT22;44912;52.754;5.994;2023-04-08T14:05:00;14.00;99.90
59128;DHT22;44912;52.754;5.994;2023-04-08T14:07:26;14.10;99.90
59128;DHT22;44912;52.754;5.994;2023-04-08T14:09:51;14.10;99.90
59128;DHT22;44912;52.754;5.994;2023-04-08T14:12:17;14.20;99.90
59128;DHT22;44912;52.754;5.994;2023-04-08T14:14:42;14.30;99.90
59128;DHT22;44912;52.754;5.994;2023-04-08T14:17:08;14.40;99.90
59128;DHT22;44912;52.754;5.994;2023-04-08T14:19:33;14.40;99.90
59128;DHT22;44912;52.754;5.994;2023-04-08T14:21:59;14.40;99.90
59128;DHT22;44912;52.754;5.994;2023-04-08T14:24:25;14.40;99.90
59128;DHT22;44912;52.754;5.994;2023-04-08T14:26:51;14.40;99.90
59128;DHT22;44912;52.754;5.994;2023-04-08T14:29:16;14.40;99.90
59128;DHT22;44912;52.754;5.994;2023-04-08T14:31:42;14.30;99.90
59128;DHT22;44912;52.754;5.994;2023-04-08T14:34:07;14.30;99.90
59128;DHT22;44912;52.754;5.994;2023-04-08T14:36:33;14.30;99.90
59128;DHT22;44912;52.754;5.994;2023-04-08T14:38:59;14.20;99.90
59128;DHT22;44912;52.754;5.994;2023-04-08T14:41:24;14.20;99.90
59128;DHT22;44912;52.754;5.994;2023-04-08T14:43:51;14.20;99.90
59128;DHT22;44912;52.754;5.994;2023-04-08T14:46:17;14.10;99.90
59128;DHT22;44912;52.754;5.994;2023-04-08T14:48:43;14.10;99.90
59128;DHT22;44912;52.754;5.994;2023-04-08T14:51:09;14.00;99.90
59128;DHT22;44912;52.754;5.994;2023-04-08T14:53:34;14.00;99.90
59128;DHT22;44912;52.754;5.994;2023-04-08T14:56:00;14.00;99.90
59128;DHT22;44912;52.754;5.994;2023-04-08T14:58:26;14.00;99.90
59128;DHT22;44912;52.754;5.994;2023-04-08T15:00:51;14.10;99.90
59128;DHT22;44912;52.754;5.994;2023-04-08T15:03:17;14.10;99.90
59128;DHT22;44912;52.754;5.994;2023-04-08T15:05:43;14.00;99.90
59128;DHT22;44912;52.754;5.994;2023-04-08T15:08:09;13.90;99.90
59128;DHT22;44912;52.754;5.994;2023-04-08T15:10:35;13.90;99.90
59128;DHT22;44912;52.754;5.994;2023-04-08T15:13:00;13.90;99.90
59128;DHT22;44912;52.754;5.994;2023-04-08T15:15:26;13.90;99.90
59128;DHT22;44912;52.754;5.994;2023-04-08T15:17:52;13.70;99.90
59128;DHT22;44912;52.754;5.994;2023-04-08T15:20:17;13.70;99.90
59128;DHT22;44912;52.754;5.994;2023-04-08T15:22:44;13.70;99.90
59128;DHT22;44912;52.754;5.994;2023-04-08T15:25:10;13.60;99.90
59128;DHT22;44912;52.754;5.994;2023-04-08T15:27:35;13.50;99.90
59128;DHT22;44912;52.754;5.994;2023-04-08T15:30:02;13.50;99.90
59128;DHT22;44912;52.754;5.994;2023-04-08T15:32:28;13.40;99.90
59128;DHT22;44912;52.754;5.994;2023-04-08T15:34:54;13.30;99.90
59128;DHT22;44912;52.754;5.994;2023-04-08T15:37:20;13.20;99.90
59128;DHT22;44912;52.754;5.994;2023-04-08T15:39:46;13.10;99.90
59128;DHT22;44912;52.754;5.994;2023-04-08T15:42:12;13.00;99.90
59128;DHT22;44912;52.754;5.994;2023-04-08T15:44:37;13.00;99.90
59128;DHT22;44912;52.754;5.994;2023-04-08T15:47:03;12.90;99.90
59128;DHT22;44912;52.754;5.994;2023-04-08T15:49:29;12.90;99.90
59128;DHT22;44912;52.754;5.994;2023-04-08T15:51:54;12.90;99.90